Anacostia, District of Columbia
Current Conditions -  °F | °C
As of 7:52 AM on Saturday 01 Nov 2014 (Local Time) from KDCA Reporting Station
Overcast Overcast  
Wind Chill: 11°   Ceiling: 2100
Heat Index: 11°   Visibility: 10mi
Dew Point:   Wind: 14mph
Humidity: 66%   Direction: 360°N
Pressure: 29.79"   Gusts: NA
Location:  38.8618°N, 77.0026°W
Report Text: KDCA 011152Z 36012KT 10SM OVC021 11/04 A2979 RMK AO2 SLP089 T01060044 10111 20100 51008
Loading
Personal Weather Stations






























Interactive Weather Map
Tropical Storm Tracking
New forecast layout! Learn more

10-Day Weather Forecast

Advertisements
Track Severe Weather on mobile